sensor_id;sensor_type;location;lat;lon;timestamp;pressure;altitude;pressure_sealevel;temperature;humidity
54369;BME280;40266;52.434;17.056;2023-02-20T00:01:18;101037.07;;;-0.55;80.00
54369;BME280;40266;52.434;17.056;2023-02-20T00:04:01;101043.63;;;-0.53;80.06
54369;BME280;40266;52.434;17.056;2023-02-20T00:06:44;101044.70;;;-0.53;80.15
54369;BME280;40266;52.434;17.056;2023-02-20T00:09:27;101042.67;;;-0.52;80.13
54369;BME280;40266;52.434;17.056;2023-02-20T00:12:10;101044.09;;;-0.50;80.17
54369;BME280;40266;52.434;17.056;2023-02-20T00:14:53;101044.79;;;-0.50;80.16
54369;BME280;40266;52.434;17.056;2023-02-20T00:17:36;101050.83;;;-0.49;80.29
54369;BME280;40266;52.434;17.056;2023-02-20T00:20:20;101049.47;;;-0.49;80.27
54369;BME280;40266;52.434;17.056;2023-02-20T00:23:03;101049.83;;;-0.48;80.34
54369;BME280;40266;52.434;17.056;2023-02-20T00:25:46;101051.94;;;-0.47;80.40
54369;BME280;40266;52.434;17.056;2023-02-20T00:28:29;101048.08;;;-0.44;80.45
54369;BME280;40266;52.434;17.056;2023-02-20T00:31:14;101039.56;;;-0.42;80.65
54369;BME280;40266;52.434;17.056;2023-02-20T00:33:58;101038.64;;;-0.38;80.75
54369;BME280;40266;52.434;17.056;2023-02-20T00:36:41;101036.01;;;-0.35;80.77
54369;BME280;40266;52.434;17.056;2023-02-20T00:39:25;101035.61;;;-0.31;80.91
54369;BME280;40266;52.434;17.056;2023-02-20T00:42:08;101033.89;;;-0.26;81.03
54369;BME280;40266;52.434;17.056;2023-02-20T00:44:51;101032.71;;;-0.21;81.09
54369;BME280;40266;52.434;17.056;2023-02-20T00:47:34;101026.90;;;-0.15;81.17
54369;BME280;40266;52.434;17.056;2023-02-20T00:50:17;101028.44;;;-0.09;81.29
54369;BME280;40266;52.434;17.056;2023-02-20T00:53:01;101015.91;;;-0.04;81.24
54369;BME280;40266;52.434;17.056;2023-02-20T00:55:45;101013.47;;;0.01;81.32
54369;BME280;40266;52.434;17.056;2023-02-20T00:58:28;101001.79;;;0.06;81.37
54369;BME280;40266;52.434;17.056;2023-02-20T01:01:11;100996.26;;;0.11;81.36
54369;BME280;40266;52.434;17.056;2023-02-20T01:03:54;100990.23;;;0.16;81.36
54369;BME280;40266;52.434;17.056;2023-02-20T01:06:37;100989.63;;;0.19;81.37
54369;BME280;40266;52.434;17.056;2023-02-20T01:09:20;100990.93;;;0.23;81.34
54369;BME280;40266;52.434;17.056;2023-02-20T01:12:03;100987.05;;;0.25;81.30
54369;BME280;40266;52.434;17.056;2023-02-20T01:14:46;100996.34;;;0.26;81.23
54369;BME280;40266;52.434;17.056;2023-02-20T01:17:29;100997.54;;;0.25;81.12
54369;BME280;40266;52.434;17.056;2023-02-20T01:20:12;100999.05;;;0.24;81.28
54369;BME280;40266;52.434;17.056;2023-02-20T01:22:54;100996.65;;;0.24;81.37
54369;BME280;40266;52.434;17.056;2023-02-20T01:25:37;100992.02;;;0.24;81.43
54369;BME280;40266;52.434;17.056;2023-02-20T01:28:20;100980.65;;;0.23;81.52
54369;BME280;40266;52.434;17.056;2023-02-20T01:31:03;100966.52;;;0.22;81.46
54369;BME280;40266;52.434;17.056;2023-02-20T01:33:49;100958.27;;;0.22;81.63
54369;BME280;40266;52.434;17.056;2023-02-20T01:36:32;100956.17;;;0.21;81.48
54369;BME280;40266;52.434;17.056;2023-02-20T01:39:18;100958.22;;;0.19;81.64
54369;BME280;40266;52.434;17.056;2023-02-20T01:42:05;100963.69;;;0.19;81.72
54369;BME280;40266;52.434;17.056;2023-02-20T01:44:49;100960.55;;;0.17;81.70
54369;BME280;40266;52.434;17.056;2023-02-20T01:47:33;100955.00;;;0.15;81.82
54369;BME280;40266;52.434;17.056;2023-02-20T01:50:17;100951.33;;;0.13;81.94
54369;BME280;40266;52.434;17.056;2023-02-20T01:53:07;100946.25;;;0.10;82.01
54369;BME280;40266;52.434;17.056;2023-02-20T01:56:01;100947.24;;;0.09;82.12
54369;BME280;40266;52.434;17.056;2023-02-20T01:58:48;100954.59;;;0.07;82.25
54369;BME280;40266;52.434;17.056;2023-02-20T02:01:57;100961.58;;;0.06;82.36
54369;BME280;40266;52.434;17.056;2023-02-20T02:22:03;100915.58;;;0.13;83.35
54369;BME280;40266;52.434;17.056;2023-02-20T02:48:30;100893.02;;;0.34;84.38
54369;BME280;40266;52.434;17.056;2023-02-20T02:59:28;100877.83;;;0.51;84.66
54369;BME280;40266;52.434;17.056;2023-02-20T03:13:31;100869.95;;;0.72;84.81
54369;BME280;40266;52.434;17.056;2023-02-20T03:20:59;100856.92;;;0.80;84.90
54369;BME280;40266;52.434;17.056;2023-02-20T03:42:03;100841.59;;;0.93;85.10
54369;BME280;40266;52.434;17.056;2023-02-20T03:45:37;100841.98;;;0.95;85.14
54369;BME280;40266;52.434;17.056;2023-02-20T03:49:19;100849.23;;;0.96;85.32
54369;BME280;40266;52.434;17.056;2023-02-20T03:52:34;100843.59;;;0.97;85.40
54369;BME280;40266;52.434;17.056;2023-02-20T03:56:18;100835.90;;;1.00;85.39
54369;BME280;40266;52.434;17.056;2023-02-20T03:59:55;100833.55;;;1.02;85.45
54369;BME280;40266;52.434;17.056;2023-02-20T04:06:50;100822.92;;;1.03;85.50
54369;BME280;40266;52.434;17.056;2023-02-20T04:09:34;100817.77;;;1.03;85.66
54369;BME280;40266;52.434;17.056;2023-02-20T04:13:10;100816.94;;;1.05;85.61
54369;BME280;40266;52.434;17.056;2023-02-20T04:16:50;100826.60;;;1.06;85.81
54369;BME280;40266;52.434;17.056;2023-02-20T04:19:52;100826.10;;;1.08;85.94
54369;BME280;40266;52.434;17.056;2023-02-20T04:23:36;100824.41;;;1.09;85.97
54369;BME280;40266;52.434;17.056;2023-02-20T04:33:55;100811.13;;;1.14;86.13
54369;BME280;40266;52.434;17.056;2023-02-20T04:37:21;100803.77;;;1.16;86.20
54369;BME280;40266;52.434;17.056;2023-02-20T04:43:57;100802.28;;;1.18;86.30
54369;BME280;40266;52.434;17.056;2023-02-20T04:47:26;100798.55;;;1.20;86.48
54369;BME280;40266;52.434;17.056;2023-02-20T04:57:43;100780.39;;;1.24;86.67
54369;BME280;40266;52.434;17.056;2023-02-20T05:05:25;100753.61;;;1.26;86.67
54369;BME280;40266;52.434;17.056;2023-02-20T05:08:43;100744.50;;;1.28;86.65
54369;BME280;40266;52.434;17.056;2023-02-20T05:15:14;100739.08;;;1.31;86.97
54369;BME280;40266;52.434;17.056;2023-02-20T05:18:55;100734.27;;;1.32;87.11
54369;BME280;40266;52.434;17.056;2023-02-20T05:22:20;100737.72;;;1.32;87.17
54369;BME280;40266;52.434;17.056;2023-02-20T05:29:35;100708.08;;;1.30;87.64
54369;BME280;40266;52.434;17.056;2023-02-20T05:37:05;100698.03;;;1.27;87.97
54369;BME280;40266;52.434;17.056;2023-02-20T05:47:56;100680.84;;;1.29;88.37
54369;BME280;40266;52.434;17.056;2023-02-20T05:58:25;100665.63;;;1.32;88.71
54369;BME280;40266;52.434;17.056;2023-02-20T06:13:34;100643.77;;;1.41;89.35
54369;BME280;40266;52.434;17.056;2023-02-20T06:31:06;100639.77;;;1.56;90.03
54369;BME280;40266;52.434;17.056;2023-02-20T06:34:47;100623.12;;;1.60;90.17
54369;BME280;40266;52.434;17.056;2023-02-20T06:37:59;100613.39;;;1.64;90.30
54369;BME280;40266;52.434;17.056;2023-02-20T06:44:56;100595.27;;;1.72;90.62
54369;BME280;40266;52.434;17.056;2023-02-20T06:48:10;100596.70;;;1.75;90.53
54369;BME280;40266;52.434;17.056;2023-02-20T06:58:00;100581.91;;;1.86;90.83
54369;BME280;40266;52.434;17.056;2023-02-20T07:05:11;100582.77;;;1.96;91.26
54369;BME280;40266;52.434;17.056;2023-02-20T07:09:05;100572.52;;;2.01;91.47
54369;BME280;40266;52.434;17.056;2023-02-20T07:16:40;100544.48;;;2.16;91.74
54369;BME280;40266;52.434;17.056;2023-02-20T07:31:34;100503.97;;;2.54;92.04
54369;BME280;40266;52.434;17.056;2023-02-20T07:46:16;100465.11;;;2.78;91.87
54369;BME280;40266;52.434;17.056;2023-02-20T07:53:48;100458.35;;;2.90;92.08
54369;BME280;40266;52.434;17.056;2023-02-20T08:04:33;100438.80;;;3.03;92.12
54369;BME280;40266;52.434;17.056;2023-02-20T08:08:29;100434.34;;;3.06;92.46
54369;BME280;40266;52.434;17.056;2023-02-20T08:19:26;100423.40;;;3.17;93.20
54369;BME280;40266;52.434;17.056;2023-02-20T08:22:49;100412.02;;;3.17;93.27
54369;BME280;40266;52.434;17.056;2023-02-20T08:26:33;100417.56;;;3.19;93.56
54369;BME280;40266;52.434;17.056;2023-02-20T08:30:34;100420.86;;;3.23;93.85
54369;BME280;40266;52.434;17.056;2023-02-20T08:33:26;100414.86;;;3.26;94.01
54369;BME280;40266;52.434;17.056;2023-02-20T08:36:18;100409.85;;;3.26;94.11
54369;BME280;40266;52.434;17.056;2023-02-20T08:39:21;100392.10;;;3.29;94.59
54369;BME280;40266;52.434;17.056;2023-02-20T08:43:16;100386.42;;;3.33;94.68
54369;BME280;40266;52.434;17.056;2023-02-20T08:49:46;100358.55;;;3.47;95.44
54369;BME280;40266;52.434;17.056;2023-02-20T08:52:57;100351.52;;;3.53;95.64
54369;BME280;40266;52.434;17.056;2023-02-20T08:56:17;100340.17;;;3.63;95.91
54369;BME280;40266;52.434;17.056;2023-02-20T08:59:48;100347.27;;;3.67;96.02
54369;BME280;40266;52.434;17.056;2023-02-20T09:02:53;100322.75;;;3.70;96.18
54369;BME280;40266;52.434;17.056;2023-02-20T09:05:56;100332.27;;;3.70;96.48
54369;BME280;40266;52.434;17.056;2023-02-20T09:09:18;100324.86;;;3.73;96.53
54369;BME280;40266;52.434;17.056;2023-02-20T09:12:22;100333.67;;;3.75;96.83
54369;BME280;40266;52.434;17.056;2023-02-20T09:15:19;100295.53;;;3.80;96.97
54369;BME280;40266;52.434;17.056;2023-02-20T09:25:39;100267.77;;;4.00;97.52
54369;BME280;40266;52.434;17.056;2023-02-20T09:28:42;100271.09;;;4.08;97.87
54369;BME280;40266;52.434;17.056;2023-02-20T09:36:07;100244.67;;;4.22;98.13
54369;BME280;40266;52.434;17.056;2023-02-20T09:38:52;100192.82;;;4.29;98.48
54369;BME280;40266;52.434;17.056;2023-02-20T09:45:35;100193.70;;;4.44;98.41
54369;BME280;40266;52.434;17.056;2023-02-20T10:00:31;100178.27;;;4.79;99.05
54369;BME280;40266;52.434;17.056;2023-02-20T10:03:58;100186.90;;;4.91;99.12
54369;BME280;40266;52.434;17.056;2023-02-20T10:10:49;100147.90;;;5.11;99.13
54369;BME280;40266;52.434;17.056;2023-02-20T10:20:22;100103.77;;;5.44;98.80
54369;BME280;40266;52.434;17.056;2023-02-20T10:23:51;100083.27;;;5.57;98.76
54369;BME280;40266;52.434;17.056;2023-02-20T10:27:32;100082.83;;;5.69;98.59
54369;BME280;40266;52.434;17.056;2023-02-20T10:30:49;100066.96;;;5.81;98.24
54369;BME280;40266;52.434;17.056;2023-02-20T10:33:57;100056.84;;;5.94;97.86
54369;BME280;40266;52.434;17.056;2023-02-20T10:37:33;100034.04;;;6.06;97.56
54369;BME280;40266;52.434;17.056;2023-02-20T10:48:12;100022.55;;;6.45;96.12
54369;BME280;40266;52.434;17.056;2023-02-20T10:51:25;100022.75;;;6.58;96.09
54369;BME280;40266;52.434;17.056;2023-02-20T10:54:45;100011.52;;;6.70;95.54
54369;BME280;40266;52.434;17.056;2023-02-20T10:58:02;100014.68;;;6.80;95.14
54369;BME280;40266;52.434;17.056;2023-02-20T11:01:14;99986.98;;;6.88;94.55
54369;BME280;40266;52.434;17.056;2023-02-20T11:07:37;99972.00;;;7.04;93.47
54369;BME280;40266;52.434;17.056;2023-02-20T11:10:27;99966.33;;;7.12;92.95
54369;BME280;40266;52.434;17.056;2023-02-20T11:13:31;99957.89;;;7.20;92.79
54369;BME280;40266;52.434;17.056;2023-02-20T11:16:23;99957.27;;;7.26;92.22
54369;BME280;40266;52.434;17.056;2023-02-20T11:25:57;99941.74;;;7.62;91.38
54369;BME280;40266;52.434;17.056;2023-02-20T11:29:32;99936.98;;;7.76;90.32
54369;BME280;40266;52.434;17.056;2023-02-20T11:35:41;99919.39;;;7.97;89.25
54369;BME280;40266;52.434;17.056;2023-02-20T11:38:32;99909.23;;;8.10;88.97
54369;BME280;40266;52.434;17.056;2023-02-20T11:41:30;99905.20;;;8.21;88.76
54369;BME280;40266;52.434;17.056;2023-02-20T11:44:19;99896.85;;;8.29;87.67
54369;BME280;40266;52.434;17.056;2023-02-20T11:47:23;99884.73;;;8.35;86.97
54369;BME280;40266;52.434;17.056;2023-02-20T11:50:19;99884.46;;;8.41;86.16
54369;BME280;40266;52.434;17.056;2023-02-20T11:53:05;99878.64;;;8.44;86.20
54369;BME280;40266;52.434;17.056;2023-02-20T11:56:08;99884.84;;;8.48;85.59
54369;BME280;40266;52.434;17.056;2023-02-20T11:59:39;99858.00;;;8.50;84.55
54369;BME280;40266;52.434;17.056;2023-02-20T12:02:32;99858.71;;;8.49;84.27
54369;BME280;40266;52.434;17.056;2023-02-20T12:05:15;99855.08;;;8.49;83.64
54369;BME280;40266;52.434;17.056;2023-02-20T12:07:59;99846.81;;;8.52;83.06
54369;BME280;40266;52.434;17.056;2023-02-20T12:10:52;99851.79;;;8.55;83.08
54369;BME280;40266;52.434;17.056;2023-02-20T12:13:46;99843.91;;;8.57;83.05
54369;BME280;40266;52.434;17.056;2023-02-20T12:20:15;99846.30;;;8.59;82.04
54369;BME280;40266;52.434;17.056;2023-02-20T12:23:26;99851.55;;;8.58;81.32
54369;BME280;40266;52.434;17.056;2023-02-20T12:29:13;99848.80;;;8.56;80.69
54369;BME280;40266;52.434;17.056;2023-02-20T12:35:29;99833.96;;;8.51;80.36
54369;BME280;40266;52.434;17.056;2023-02-20T12:47:43;99829.52;;;8.38;80.54
54369;BME280;40266;52.434;17.056;2023-02-20T12:50:38;99832.55;;;8.35;80.71
54369;BME280;40266;52.434;17.056;2023-02-20T12:53:46;99821.25;;;8.34;80.69
54369;BME280;40266;52.434;17.056;2023-02-20T13:02:36;99810.88;;;8.23;80.18
54369;BME280;40266;52.434;17.056;2023-02-20T13:05:39;99796.45;;;8.22;80.56
54369;BME280;40266;52.434;17.056;2023-02-20T13:08:33;99789.99;;;8.23;80.39
54369;BME280;40266;52.434;17.056;2023-02-20T13:11:39;99787.20;;;8.23;80.40
54369;BME280;40266;52.434;17.056;2023-02-20T13:17:48;99792.91;;;8.25;80.31
54369;BME280;40266;52.434;17.056;2023-02-20T13:20:44;99782.63;;;8.26;80.52
54369;BME280;40266;52.434;17.056;2023-02-20T13:23:38;99777.23;;;8.27;80.65
54369;BME280;40266;52.434;17.056;2023-02-20T13:29:22;99766.25;;;8.28;80.64
54369;BME280;40266;52.434;17.056;2023-02-20T13:32:37;99759.98;;;8.28;80.45
54369;BME280;40266;52.434;17.056;2023-02-20T13:38:26;99764.65;;;8.28;80.90
54369;BME280;40266;52.434;17.056;2023-02-20T13:41:21;99760.46;;;8.30;80.85
54369;BME280;40266;52.434;17.056;2023-02-20T13:44:47;99761.13;;;8.30;80.83
54369;BME280;40266;52.434;17.056;2023-02-20T13:47:40;99754.86;;;8.31;81.03
54369;BME280;40266;52.434;17.056;2023-02-20T13:50:29;99751.35;;;8.32;80.84
54369;BME280;40266;52.434;17.056;2023-02-20T13:53:22;99748.72;;;8.34;80.91
54369;BME280;40266;52.434;17.056;2023-02-20T13:56:26;99754.95;;;8.35;81.19
54369;BME280;40266;52.434;17.056;2023-02-20T13:59:26;99753.38;;;8.35;81.09
54369;BME280;40266;52.434;17.056;2023-02-20T14:05:29;99741.19;;;8.36;81.09
54369;BME280;40266;52.434;17.056;2023-02-20T14:08:33;99741.71;;;8.35;81.16
54369;BME280;40266;52.434;17.056;2023-02-20T14:11:30;99731.27;;;8.35;81.16
54369;BME280;40266;52.434;17.056;2023-02-20T14:14:33;99736.48;;;8.36;81.37
54369;BME280;40266;52.434;17.056;2023-02-20T14:17:27;99730.33;;;8.38;81.21
54369;BME280;40266;52.434;17.056;2023-02-20T14:20:25;99731.89;;;8.39;81.35
54369;BME280;40266;52.434;17.056;2023-02-20T14:26:25;99742.85;;;8.40;81.82
54369;BME280;40266;52.434;17.056;2023-02-20T14:29:23;99744.58;;;8.40;81.99
54369;BME280;40266;52.434;17.056;2023-02-20T14:32:15;99738.11;;;8.42;81.99
54369;BME280;40266;52.434;17.056;2023-02-20T14:36:01;99727.96;;;8.44;81.92
54369;BME280;40266;52.434;17.056;2023-02-20T14:43:38;99723.19;;;8.48;82.19
54369;BME280;40266;52.434;17.056;2023-02-20T14:46:28;99715.45;;;8.51;82.15
54369;BME280;40266;52.434;17.056;2023-02-20T14:52:29;99714.13;;;8.55;82.32
54369;BME280;40266;52.434;17.056;2023-02-20T14:55:24;99717.21;;;8.57;82.70
54369;BME280;40266;52.434;17.056;2023-02-20T14:58:35;99715.44;;;8.59;82.61
54369;BME280;40266;52.434;17.056;2023-02-20T15:01:59;99715.45;;;8.58;82.64
54369;BME280;40266;52.434;17.056;2023-02-20T15:04:58;99715.82;;;8.57;82.66
54369;BME280;40266;52.434;17.056;2023-02-20T15:07:46;99710.09;;;8.56;82.78
54369;BME280;40266;52.434;17.056;2023-02-20T15:10:46;99712.52;;;8.57;82.68
54369;BME280;40266;52.434;17.056;2023-02-20T15:13:35;99718.08;;;8.57;82.92
54369;BME280;40266;52.434;17.056;2023-02-20T15:16:28;99713.91;;;8.57;82.97
54369;BME280;40266;52.434;17.056;2023-02-20T15:19:41;99719.36;;;8.55;83.07
54369;BME280;40266;52.434;17.056;2023-02-20T15:22:35;99712.73;;;8.55;83.12
54369;BME280;40266;52.434;17.056;2023-02-20T15:31:42;99702.74;;;8.51;83.61
54369;BME280;40266;52.434;17.056;2023-02-20T15:34:35;99697.52;;;8.51;83.60
54369;BME280;40266;52.434;17.056;2023-02-20T15:37:36;99695.65;;;8.49;83.65
54369;BME280;40266;52.434;17.056;2023-02-20T15:40:32;99688.02;;;8.48;83.80
54369;BME280;40266;52.434;17.056;2023-02-20T15:43:15;99692.73;;;8.48;83.82
54369;BME280;40266;52.434;17.056;2023-02-20T15:46:19;99685.80;;;8.47;83.86
54369;BME280;40266;52.434;17.056;2023-02-20T15:49:11;99693.11;;;8.47;83.98
54369;BME280;40266;52.434;17.056;2023-02-20T15:52:06;99707.02;;;8.47;83.92
54369;BME280;40266;52.434;17.056;2023-02-20T15:54:53;99711.36;;;8.47;83.94
54369;BME280;40266;52.434;17.056;2023-02-20T15:57:38;99706.66;;;8.48;83.78
54369;BME280;40266;52.434;17.056;2023-02-20T16:00:31;99710.63;;;8.49;83.78
54369;BME280;40266;52.434;17.056;2023-02-20T16:03:35;99710.79;;;8.49;83.70
54369;BME280;40266;52.434;17.056;2023-02-20T16:06:34;99703.98;;;8.50;83.63
54369;BME280;40266;52.434;17.056;2023-02-20T16:09:25;99719.11;;;8.51;83.63
54369;BME280;40266;52.434;17.056;2023-02-20T16:12:18;99717.19;;;8.51;83.56
54369;BME280;40266;52.434;17.056;2023-02-20T16:15:24;99707.25;;;8.52;83.61
54369;BME280;40266;52.434;17.056;2023-02-20T16:18:09;99713.00;;;8.52;83.57
54369;BME280;40266;52.434;17.056;2023-02-20T16:21:04;99723.77;;;8.52;83.62
54369;BME280;40266;52.434;17.056;2023-02-20T16:23:53;99723.78;;;8.52;83.69
54369;BME280;40266;52.434;17.056;2023-02-20T16:26:39;99718.56;;;8.51;83.78
54369;BME280;40266;52.434;17.056;2023-02-20T16:29:31;99729.37;;;8.51;83.75
54369;BME280;40266;52.434;17.056;2023-02-20T16:32:23;99728.31;;;8.51;83.85
54369;BME280;40266;52.434;17.056;2023-02-20T16:35:12;99724.69;;;8.50;83.89
54369;BME280;40266;52.434;17.056;2023-02-20T16:37:56;99721.20;;;8.51;83.97
54369;BME280;40266;52.434;17.056;2023-02-20T16:40:55;99723.11;;;8.51;83.91
54369;BME280;40266;52.434;17.056;2023-02-20T16:43:47;99724.34;;;8.51;83.97
54369;BME280;40266;52.434;17.056;2023-02-20T16:46:52;99719.11;;;8.51;83.94
54369;BME280;40266;52.434;17.056;2023-02-20T16:49:55;99724.35;;;8.50;84.13
54369;BME280;40266;52.434;17.056;2023-02-20T16:52:58;99720.13;;;8.52;83.99
54369;BME280;40266;52.434;17.056;2023-02-20T16:55:47;99734.05;;;8.52;84.01
54369;BME280;40266;52.434;17.056;2023-02-20T16:58:31;99739.94;;;8.53;83.96
54369;BME280;40266;52.434;17.056;2023-02-20T17:01:23;99740.63;;;8.53;83.94
54369;BME280;40266;52.434;17.056;2023-02-20T17:04:07;99739.24;;;8.53;84.05
54369;BME280;40266;52.434;17.056;2023-02-20T17:07:00;99739.40;;;8.53;84.16
54369;BME280;40266;52.434;17.056;2023-02-20T17:09:43;99738.70;;;8.54;84.09
54369;BME280;40266;52.434;17.056;2023-02-20T17:12:28;99743.05;;;8.53;84.25
54369;BME280;40266;52.434;17.056;2023-02-20T17:15:27;99737.64;;;8.54;84.06
54369;BME280;40266;52.434;17.056;2023-02-20T17:18:22;99745.10;;;8.55;84.19
54369;BME280;40266;52.434;17.056;2023-02-20T17:21:09;99750.85;;;8.55;84.15
54369;BME280;40266;52.434;17.056;2023-02-20T17:24:22;99749.64;;;8.55;84.36
54369;BME280;40266;52.434;17.056;2023-02-20T17:27:04;99761.27;;;8.56;84.35
54369;BME280;40266;52.434;17.056;2023-02-20T17:29:48;99746.98;;;8.57;84.38
54369;BME280;40266;52.434;17.056;2023-02-20T17:32:40;99750.45;;;8.57;84.31
54369;BME280;40266;52.434;17.056;2023-02-20T17:35:23;99748.67;;;8.58;84.39
54369;BME280;40266;52.434;17.056;2023-02-20T17:38:09;99751.27;;;8.59;84.47
54369;BME280;40266;52.434;17.056;2023-02-20T17:40:52;99754.02;;;8.60;84.40
54369;BME280;40266;52.434;17.056;2023-02-20T17:43:46;99740.59;;;8.62;84.38
54369;BME280;40266;52.434;17.056;2023-02-20T17:46:40;99747.70;;;8.63;84.46
54369;BME280;40266;52.434;17.056;2023-02-20T17:49:31;99748.52;;;8.65;84.64
54369;BME280;40266;52.434;17.056;2023-02-20T17:52:14;99755.83;;;8.65;84.52
54369;BME280;40266;52.434;17.056;2023-02-20T17:55:02;99745.02;;;8.65;84.56
54369;BME280;40266;52.434;17.056;2023-02-20T17:57:45;99751.27;;;8.66;84.62
54369;BME280;40266;52.434;17.056;2023-02-20T18:00:32;99747.97;;;8.66;84.68
54369;BME280;40266;52.434;17.056;2023-02-20T18:03:16;99756.30;;;8.68;84.70
54369;BME280;40266;52.434;17.056;2023-02-20T18:06:02;99738.37;;;8.68;84.76
54369;BME280;40266;52.434;17.056;2023-02-20T18:08:51;99739.74;;;8.68;84.84
54369;BME280;40266;52.434;17.056;2023-02-20T18:11:38;99742.01;;;8.68;84.97
54369;BME280;40266;52.434;17.056;2023-02-20T18:14:28;99746.20;;;8.68;84.93
54369;BME280;40266;52.434;17.056;2023-02-20T18:17:27;99740.81;;;8.67;85.12
54369;BME280;40266;52.434;17.056;2023-02-20T18:20:16;99746.55;;;8.68;85.15
54369;BME280;40266;52.434;17.056;2023-02-20T18:23:05;99739.78;;;8.66;85.17
54369;BME280;40266;52.434;17.056;2023-02-20T18:25:54;99734.89;;;8.68;85.15
54369;BME280;40266;52.434;17.056;2023-02-20T18:28:37;99734.87;;;8.68;85.24
54369;BME280;40266;52.434;17.056;2023-02-20T18:31:21;99736.58;;;8.69;85.38
54369;BME280;40266;52.434;17.056;2023-02-20T18:34:08;99741.95;;;8.70;85.38
54369;BME280;40266;52.434;17.056;2023-02-20T18:36:54;99736.91;;;8.70;85.38
54369;BME280;40266;52.434;17.056;2023-02-20T18:39:46;99736.04;;;8.70;85.55
54369;BME280;40266;52.434;17.056;2023-02-20T18:42:29;99737.77;;;8.71;85.51
54369;BME280;40266;52.434;17.056;2023-02-20T18:45:21;99733.58;;;8.71;85.43
54369;BME280;40266;52.434;17.056;2023-02-20T18:48:11;99738.77;;;8.72;85.57
54369;BME280;40266;52.434;17.056;2023-02-20T18:51:08;99727.96;;;8.73;85.57
54369;BME280;40266;52.434;17.056;2023-02-20T18:54:01;99720.13;;;8.73;85.52
54369;BME280;40266;52.434;17.056;2023-02-20T18:56:48;99715.07;;;8.73;85.60
54369;BME280;40266;52.434;17.056;2023-02-20T18:59:39;99718.20;;;8.74;85.51
54369;BME280;40266;52.434;17.056;2023-02-20T19:02:22;99710.53;;;8.74;85.61
54369;BME280;40266;52.434;17.056;2023-02-20T19:05:16;99704.11;;;8.73;85.71
54369;BME280;40266;52.434;17.056;2023-02-20T19:08:00;99694.71;;;8.74;85.73
54369;BME280;40266;52.434;17.056;2023-02-20T19:10:45;99687.39;;;8.73;85.74
54369;BME280;40266;52.434;17.056;2023-02-20T19:13:28;99686.88;;;8.73;85.84
54369;BME280;40266;52.434;17.056;2023-02-20T19:16:35;99692.83;;;8.72;85.96
54369;BME280;40266;52.434;17.056;2023-02-20T19:19:24;99689.69;;;8.72;85.97
54369;BME280;40266;52.434;17.056;2023-02-20T19:22:17;99685.84;;;8.73;85.95
54369;BME280;40266;52.434;17.056;2023-02-20T19:25:00;99684.98;;;8.72;86.17
54369;BME280;40266;52.434;17.056;2023-02-20T19:28:09;99676.42;;;8.74;86.36
54369;BME280;40266;52.434;17.056;2023-02-20T19:30:53;99657.97;;;8.74;86.27
54369;BME280;40266;52.434;17.056;2023-02-20T19:33:47;99673.12;;;8.74;86.31
54369;BME280;40266;52.434;17.056;2023-02-20T19:36:51;99673.47;;;8.73;86.47
54369;BME280;40266;52.434;17.056;2023-02-20T19:39:46;99674.52;;;8.73;86.50
54369;BME280;40266;52.434;17.056;2023-02-20T19:42:31;99677.48;;;8.73;86.51
54369;BME280;40266;52.434;17.056;2023-02-20T19:46:02;99674.73;;;8.72;86.55
54369;BME280;40266;52.434;17.056;2023-02-20T19:48:49;99676.63;;;8.72;86.58
54369;BME280;40266;52.434;17.056;2023-02-20T19:51:46;99687.09;;;8.72;86.81
54369;BME280;40266;52.434;17.056;2023-02-20T19:54:29;99698.27;;;8.70;86.88
54369;BME280;40266;52.434;17.056;2023-02-20T19:57:24;99700.55;;;8.70;87.08
54369;BME280;40266;52.434;17.056;2023-02-20T20:00:19;99694.48;;;8.69;87.13
54369;BME280;40266;52.434;17.056;2023-02-20T20:03:18;99691.70;;;8.68;87.21
54369;BME280;40266;52.434;17.056;2023-02-20T20:06:13;99703.02;;;8.69;87.38
54369;BME280;40266;52.434;17.056;2023-02-20T20:08:57;99693.79;;;8.69;87.35
54369;BME280;40266;52.434;17.056;2023-02-20T20:12:06;99700.08;;;8.68;87.33
54369;BME280;40266;52.434;17.056;2023-02-20T20:18:04;99705.33;;;8.65;87.56
54369;BME280;40266;52.434;17.056;2023-02-20T20:21:10;99703.64;;;8.64;87.69
54369;BME280;40266;52.434;17.056;2023-02-20T20:23:57;99701.63;;;8.61;87.63
54369;BME280;40266;52.434;17.056;2023-02-20T20:26:46;99706.23;;;8.58;87.85
54369;BME280;40266;52.434;17.056;2023-02-20T20:29:41;99720.02;;;8.56;88.03
54369;BME280;40266;52.434;17.056;2023-02-20T20:32:30;99726.33;;;8.55;88.01
54369;BME280;40266;52.434;17.056;2023-02-20T20:35:25;99736.80;;;8.54;88.20
54369;BME280;40266;52.434;17.056;2023-02-20T20:38:37;99733.31;;;8.53;88.40
54369;BME280;40266;52.434;17.056;2023-02-20T20:41:20;99743.04;;;8.54;88.43
54369;BME280;40266;52.434;17.056;2023-02-20T20:44:15;99747.23;;;8.53;88.50
54369;BME280;40266;52.434;17.056;2023-02-20T20:47:00;99749.35;;;8.52;88.60
54369;BME280;40266;52.434;17.056;2023-02-20T20:49:46;99749.34;;;8.53;88.79
54369;BME280;40266;52.434;17.056;2023-02-20T20:53:02;99748.15;;;8.52;88.86
54369;BME280;40266;52.434;17.056;2023-02-20T20:55:45;99743.33;;;8.49;88.95
54369;BME280;40266;52.434;17.056;2023-02-20T20:58:31;99738.84;;;8.48;89.62
54369;BME280;40266;52.434;17.056;2023-02-20T21:01:18;99737.02;;;8.44;90.08
54369;BME280;40266;52.434;17.056;2023-02-20T21:04:43;99740.30;;;8.36;90.63
54369;BME280;40266;52.434;17.056;2023-02-20T21:07:29;99739.56;;;8.30;90.99
54369;BME280;40266;52.434;17.056;2023-02-20T21:10:44;99732.69;;;8.27;91.27
54369;BME280;40266;52.434;17.056;2023-02-20T21:16:25;99732.47;;;8.21;91.68
54369;BME280;40266;52.434;17.056;2023-02-20T21:19:30;99724.80;;;8.21;91.96
54369;BME280;40266;52.434;17.056;2023-02-20T21:22:24;99723.05;;;8.21;92.09
54369;BME280;40266;52.434;17.056;2023-02-20T21:25:35;99721.49;;;8.21;92.25